Time;durP1;ratioP1;P1;durP2;ratioP2;P2;SDS_P1;SDS_P2;PMS_P1;PMS_P2;Temp;Humidity;BMP_temperature;BMP_pressure;BME280_temperature;BME280_humidity;BME280_pressure;Samples;Min_cycle;Max_cycle;Signal;HPM_P1;HPM_P2
2023/07/13 00:01:57;;;;;;;11.10;5.40;;;;;;;23.01;70.73;95430.03;5016143;28;20222;-76
2023/07/13 00:04:25;;;;;;;11.13;5.40;;;;;;;22.82;70.79;95428.94;5037097;28;20343;-75
2023/07/13 00:06:50;;;;;;;8.48;5.22;;;;;;;22.83;71.19;95434.03;5031987;28;20724;-76
2023/07/13 00:09:16;;;;;;;8.82;5.38;;;;;;;22.91;70.98;95433.50;5020300;28;20236;-75
2023/07/13 00:11:41;;;;;;;7.90;5.20;;;;;;;22.95;71.43;95433.78;5038036;28;20228;-75
2023/07/13 00:14:07;;;;;;;10.18;5.22;;;;;;;22.93;71.61;95436.69;5021711;28;20998;-75
2023/07/13 00:16:37;;;;;;;11.95;5.60;;;;;;;22.75;73.05;95432.66;5036508;28;20240;-75
2023/07/13 00:19:02;;;;;;;11.77;5.70;;;;;;;22.88;72.14;95435.91;5032148;28;20239;-75
2023/07/13 00:21:28;;;;;;;11.20;5.60;;;;;;;22.86;72.25;95430.00;5029160;28;20966;-75
2023/07/13 00:23:53;;;;;;;10.85;5.97;;;;;;;22.94;71.07;95418.81;5015235;28;20223;-75
2023/07/13 00:26:18;;;;;;;12.35;6.20;;;;;;;23.00;70.97;95423.91;5032911;28;20223;-76
2023/07/13 00:28:44;;;;;;;12.00;6.18;;;;;;;23.08;71.30;95417.22;5029902;28;20255;-75
2023/07/13 00:31:10;;;;;;;15.15;6.45;;;;;;;22.94;72.07;95416.97;5015041;28;20229;-75
2023/07/13 00:33:36;;;;;;;10.48;6.40;;;;;;;23.02;71.87;95412.97;5028101;28;20747;-75
2023/07/13 00:36:02;;;;;;;12.43;6.60;;;;;;;23.03;72.74;95407.34;5017204;28;20301;-75
2023/07/13 00:38:28;;;;;;;12.27;6.72;;;;;;;22.89;74.17;95410.78;5031148;28;20233;-75
2023/07/13 00:40:53;;;;;;;9.43;6.40;;;;;;;23.04;74.04;95405.50;5025497;28;20244;-76
2023/07/13 00:43:20;;;;;;;11.90;6.75;;;;;;;23.04;73.97;95410.81;5030102;28;20238;-76
2023/07/13 00:45:46;;;;;;;15.20;7.22;;;;;;;22.86;75.32;95413.97;5013502;28;20233;-75
2023/07/13 00:48:12;;;;;;;15.40;6.68;;;;;;;22.96;74.83;95414.81;5030059;28;20246;-75
2023/07/13 00:50:38;;;;;;;14.18;6.78;;;;;;;22.85;75.35;95420.41;5009952;28;20222;-75
2023/07/13 00:53:03;;;;;;;10.68;6.50;;;;;;;22.75;76.18;95422.00;5013613;28;20221;-75
2023/07/13 00:55:28;;;;;;;11.30;6.28;;;;;;;22.81;74.66;95422.00;5009358;28;20233;-75
2023/07/13 00:57:54;;;;;;;11.30;6.22;;;;;;;22.69;75.55;95415.00;5021843;28;20231;-75
2023/07/13 01:00:19;;;;;;;11.80;6.00;;;;;;;22.82;74.79;95413.72;5015375;28;20226;-75
2023/07/13 01:02:46;;;;;;;10.68;6.38;;;;;;;22.85;74.16;95405.19;5028811;28;20229;-75
2023/07/13 01:05:17;;;;;;;13.85;6.05;;;;;;;22.78;74.46;95413.44;5017116;28;20278;-76
2023/07/13 01:07:43;;;;;;;12.68;6.13;;;;;;;22.86;74.25;95408.66;5036650;28;20234;-75
2023/07/13 01:10:09;;;;;;;10.75;6.03;;;;;;;22.76;74.47;95399.56;5000967;28;20245;-74
2023/07/13 01:12:35;;;;;;;11.68;5.68;;;;;;;22.67;75.47;95406.47;5000091;28;20222;-75
2023/07/13 01:15:01;;;;;;;12.88;6.20;;;;;;;22.60;76.06;95411.22;5035235;28;20256;-75
2023/07/13 01:17:28;;;;;;;12.43;6.47;;;;;;;22.43;76.63;95405.28;5002613;28;20225;-75
2023/07/13 01:19:53;;;;;;;12.38;6.40;;;;;;;22.26;77.75;95401.25;5012915;28;20233;-76
2023/07/13 01:22:19;;;;;;;10.57;6.25;;;;;;;22.32;77.63;95410.84;5014154;28;20218;-75
2023/07/13 01:24:46;;;;;;;10.70;6.28;;;;;;;22.16;78.94;95402.00;5010805;28;20230;-75
2023/07/13 01:27:13;;;;;;;10.82;6.22;;;;;;;22.10;79.59;95400.34;5021490;28;20221;-75
2023/07/13 01:29:41;;;;;;;12.45;6.68;;;;;;;22.08;79.09;95402.47;5035093;28;20232;-76
2023/07/13 01:32:08;;;;;;;10.38;6.38;;;;;;;22.18;79.08;95399.88;5019026;28;20235;-75
2023/07/13 01:34:34;;;;;;;9.95;6.20;;;;;;;22.26;78.62;95395.91;5030138;28;20234;-75
2023/07/13 01:36:59;;;;;;;9.70;6.10;;;;;;;22.28;78.23;95405.25;5048034;28;20261;-75
2023/07/13 01:39:25;;;;;;;11.20;6.50;;;;;;;22.16;79.60;95407.31;5049969;28;20228;-75
2023/07/13 01:41:50;;;;;;;12.00;6.47;;;;;;;22.05;79.69;95402.97;5053594;28;21329;-75
2023/07/13 01:44:16;;;;;;;9.38;6.22;;;;;;;22.25;79.46;95397.75;5009814;28;20203;-76
2023/07/13 01:46:41;;;;;;;10.73;6.55;;;;;;;22.06;80.70;95400.06;5015181;28;20224;-75
2023/07/13 01:49:07;;;;;;;12.13;6.53;;;;;;;22.17;80.01;95400.09;5050412;28;20236;-75
2023/07/13 01:51:32;;;;;;;14.23;6.65;;;;;;;22.17;80.34;95395.56;5045972;28;20230;-75
2023/07/13 01:53:58;;;;;;;13.48;7.13;;;;;;;22.12;80.60;95399.03;5046813;28;20851;-75
2023/07/13 01:56:23;;;;;;;13.45;6.95;;;;;;;22.00;81.56;95394.97;5048567;28;20279;-75
2023/07/13 01:58:49;;;;;;;11.32;7.05;;;;;;;22.19;81.14;95395.34;5032182;28;20251;-75
2023/07/13 02:01:14;;;;;;;11.80;6.68;;;;;;;21.98;81.88;95403.22;5046243;28;20217;-75
2023/07/13 02:03:39;;;;;;;12.38;6.80;;;;;;;22.02;82.24;95400.81;5015995;28;20275;-75
2023/07/13 02:06:05;;;;;;;12.68;7.18;;;;;;;21.96;82.54;95404.53;5046028;28;20251;-75
2023/07/13 02:08:34;;;;;;;12.15;7.22;;;;;;;21.96;83.20;95407.22;5031546;28;20220;-75
2023/07/13 02:11:02;;;;;;;11.82;7.20;;;;;;;21.95;83.04;95402.91;5034349;28;20611;-75
2023/07/13 02:13:27;;;;;;;14.13;7.10;;;;;;;21.97;82.70;95411.50;5016718;28;20337;-75
2023/07/13 02:15:53;;;;;;;14.20;7.13;;;;;;;21.94;83.06;95402.16;5033800;28;20259;-75
2023/07/13 02:18:18;;;;;;;11.27;7.00;;;;;;;22.05;82.78;95410.97;5036189;28;20258;-75
2023/07/13 02:20:44;;;;;;;11.20;7.13;;;;;;;22.07;83.69;95408.84;5048771;28;20350;-75
2023/07/13 02:23:10;;;;;;;12.45;7.20;;;;;;;22.03;83.53;95403.25;5025596;28;20597;-75
2023/07/13 02:25:35;;;;;;;11.77;7.13;;;;;;;21.95;84.57;95403.72;4997556;28;20240;-74
2023/07/13 02:28:00;;;;;;;11.98;7.32;;;;;;;22.07;84.35;95412.31;5024562;28;20229;-75
2023/07/13 02:30:27;;;;;;;12.15;7.53;;;;;;;21.99;85.86;95415.50;5042063;28;20226;-75
2023/07/13 02:32:52;;;;;;;13.00;7.80;;;;;;;22.08;85.55;95421.94;5013490;28;20732;-75
2023/07/13 02:35:18;;;;;;;14.85;8.23;;;;;;;21.77;87.20;95411.31;5039251;28;20229;-74
2023/07/13 02:37:43;;;;;;;15.93;7.38;;;;;;;21.80;87.14;95411.63;5021834;28;20229;-75
2023/07/13 02:40:09;;;;;;;14.68;7.93;;;;;;;21.72;87.60;95408.63;5036542;28;20240;-75
2023/07/13 02:42:35;;;;;;;13.48;7.57;;;;;;;21.78;87.25;95413.72;5016604;28;20290;-75
2023/07/13 02:45:00;;;;;;;13.32;8.13;;;;;;;21.85;86.87;95414.31;5053626;28;20602;-75
2023/07/13 02:47:26;;;;;;;13.82;7.72;;;;;;;21.64;87.12;95409.91;5019085;28;20245;-75
2023/07/13 02:49:52;;;;;;;13.40;7.88;;;;;;;21.60;87.18;95416.00;5016959;28;20234;-75
2023/07/13 02:52:17;;;;;;;14.20;7.95;;;;;;;21.47;87.96;95414.56;5034363;28;20228;-75
2023/07/13 02:54:43;;;;;;;14.52;7.45;;;;;;;21.49;87.31;95413.25;5013187;28;20263;-76
2023/07/13 02:57:08;;;;;;;12.52;7.53;;;;;;;21.58;87.66;95415.44;5034745;28;20205;-74
2023/07/13 02:59:33;;;;;;;14.93;7.57;;;;;;;21.55;87.81;95418.63;5034075;28;20243;-75
2023/07/13 03:02:01;;;;;;;12.63;7.63;;;;;;;21.42;89.06;95425.22;5046664;28;20240;-74
2023/07/13 03:04:26;;;;;;;14.35;7.90;;;;;;;21.44;89.35;95421.22;5030619;28;20237;-75
2023/07/13 03:06:52;;;;;;;15.95;8.20;;;;;;;21.65;88.17;95432.03;5017241;28;20231;-75
2023/07/13 03:09:17;;;;;;;14.65;7.97;;;;;;;21.69;88.68;95425.94;5048985;28;20306;-74
2023/07/13 03:11:43;;;;;;;11.85;8.10;;;;;;;21.72;88.36;95424.59;5050100;28;20217;-75
2023/07/13 03:14:08;;;;;;;14.27;8.65;;;;;;;21.81;88.02;95423.88;5037138;28;20718;-74
2023/07/13 03:16:34;;;;;;;13.75;8.75;;;;;;;21.73;88.41;95423.56;5051264;28;20232;-75
2023/07/13 03:18:59;;;;;;;14.85;9.02;;;;;;;21.72;88.18;95429.94;5031588;28;20240;-75
2023/07/13 03:21:25;;;;;;;15.23;9.10;;;;;;;21.71;88.81;95431.00;5037281;28;20236;-74
2023/07/13 03:23:50;;;;;;;16.02;9.02;;;;;;;21.73;88.70;95429.72;5033329;28;20236;-75
2023/07/13 03:26:18;;;;;;;12.95;8.50;;;;;;;21.84;87.44;95428.72;5052282;28;20224;-74
2023/07/13 03:28:43;;;;;;;14.75;9.10;;;;;;;21.91;87.46;95428.50;5023021;28;20287;-75
2023/07/13 03:31:11;;;;;;;13.95;8.73;;;;;;;21.85;87.53;95426.88;5018897;28;22761;-75
2023/07/13 03:33:37;;;;;;;13.05;8.27;;;;;;;21.65;88.59;95434.69;5005080;28;20229;-75
2023/07/13 03:36:04;;;;;;;15.80;9.13;;;;;;;21.74;87.43;95428.63;5008534;28;20234;-74
2023/07/13 03:38:29;;;;;;;12.77;8.55;;;;;;;21.80;87.55;95434.81;4991563;28;20829;-74
2023/07/13 03:40:55;;;;;;;13.30;9.20;;;;;;;21.84;86.87;95439.41;5005190;28;20234;-75
2023/07/13 03:43:20;;;;;;;16.00;9.13;;;;;;;21.85;87.14;95438.31;5018150;28;20668;-74
2023/07/13 03:45:46;;;;;;;15.32;9.23;;;;;;;21.89;86.94;95433.28;5036911;28;20666;-75
2023/07/13 03:48:11;;;;;;;16.30;8.98;;;;;;;21.96;86.54;95432.00;5028405;28;20226;-75
2023/07/13 03:50:38;;;;;;;16.38;9.32;;;;;;;22.04;86.11;95430.72;5002590;28;20244;-76
2023/07/13 03:53:03;;;;;;;15.75;8.80;;;;;;;22.04;86.11;95433.38;5014588;28;20226;-73
2023/07/13 03:55:29;;;;;;;15.32;9.27;;;;;;;22.06;86.51;95434.75;5006160;28;20249;-75
2023/07/13 03:57:58;;;;;;;17.63;9.73;;;;;;;22.02;86.31;95430.16;5014641;28;20257;-75
2023/07/13 04:00:24;;;;;;;15.10;8.68;;;;;;;21.93;87.04;95435.19;4992443;28;20234;-75
2023/07/13 04:02:50;;;;;;;15.57;9.65;;;;;;;21.96;86.72;95437.34;5015467;28;20793;-75
2023/07/13 04:05:15;;;;;;;14.65;8.95;;;;;;;22.02;86.51;95435.50;5013589;28;20321;-75
2023/07/13 04:07:41;;;;;;;13.27;9.00;;;;;;;21.81;87.21;95429.22;5028968;28;20458;-75
2023/07/13 04:10:07;;;;;;;16.08;9.27;;;;;;;21.92;86.70;95425.59;5031793;28;20214;-75
2023/07/13 04:12:32;;;;;;;13.68;9.15;;;;;;;21.85;86.83;95427.66;5033698;28;20244;-75
2023/07/13 04:14:58;;;;;;;14.30;9.35;;;;;;;22.02;85.88;95433.63;5025399;28;20227;-75
2023/07/13 04:17:23;;;;;;;16.60;9.68;;;;;;;22.11;85.71;95439.28;4993541;28;20226;-75
2023/07/13 04:19:49;;;;;;;16.27;9.20;;;;;;;22.06;86.24;95436.59;5011674;28;20710;-75
2023/07/13 04:22:14;;;;;;;14.70;9.63;;;;;;;22.13;85.25;95443.31;5012443;28;20272;-75
2023/07/13 04:24:40;;;;;;;13.63;8.75;;;;;;;22.05;86.48;95445.66;5010335;28;20294;-75
2023/07/13 04:27:06;;;;;;;16.60;9.55;;;;;;;22.16;85.53;95449.19;5034118;28;20241;-76
2023/07/13 04:29:32;;;;;;;18.40;9.27;;;;;;;22.30;84.70;95447.66;5013236;28;20233;-75
2023/07/13 04:31:57;;;;;;;14.43;9.77;;;;;;;22.39;82.82;95443.44;5035827;28;20242;-75
2023/07/13 04:34:23;;;;;;;14.60;9.50;;;;;;;22.51;83.08;95450.16;5007578;28;20231;-75
2023/07/13 04:36:49;;;;;;;17.17;9.57;;;;;;;22.51;84.20;95452.81;5055390;28;20221;-75
2023/07/13 04:39:15;;;;;;;12.90;8.80;;;;;;;22.36;84.69;95451.94;5029629;28;20623;-76
2023/07/13 04:41:41;;;;;;;15.48;9.23;;;;;;;22.29;85.12;95451.38;5031269;28;20233;-75
2023/07/13 04:44:06;;;;;;;12.23;8.93;;;;;;;22.26;85.56;95452.69;5010373;28;20254;-76
2023/07/13 04:46:32;;;;;;;15.35;8.98;;;;;;;22.23;85.86;95453.22;5033717;28;20244;-75
2023/07/13 04:48:58;;;;;;;19.15;9.30;;;;;;;22.39;84.97;95454.91;5009216;28;20245;-76
2023/07/13 04:51:24;;;;;;;15.68;9.57;;;;;;;22.56;83.30;95462.72;5023025;28;20226;-75
2023/07/13 04:53:49;;;;;;;17.67;9.80;;;;;;;22.71;80.76;95466.25;5028777;28;20242;-75
2023/07/13 04:56:15;;;;;;;15.70;10.48;;;;;;;22.64;81.16;95465.69;5014506;28;20225;-75
2023/07/13 04:58:40;;;;;;;16.25;10.20;;;;;;;22.78;81.26;95474.84;5004702;28;20265;-75
2023/07/13 05:01:06;;;;;;;17.25;10.40;;;;;;;22.87;81.71;95480.47;5020530;28;20317;-76
2023/07/13 05:03:31;;;;;;;16.92;10.45;;;;;;;22.97;81.67;95469.03;5024682;28;20443;-76
2023/07/13 05:05:58;;;;;;;20.92;11.00;;;;;;;23.06;80.59;95470.94;5047827;28;20216;-75
2023/07/13 05:08:23;;;;;;;19.15;11.05;;;;;;;23.09;79.99;95477.59;5037790;28;20222;-76
2023/07/13 05:10:50;;;;;;;22.42;10.57;;;;;;;23.15;79.89;95476.53;5044495;28;20670;-75
2023/07/13 05:13:15;;;;;;;23.88;11.20;;;;;;;23.20;79.63;95473.88;5020309;28;20225;-75
2023/07/13 05:15:41;;;;;;;22.00;11.07;;;;;;;23.31;79.58;95478.16;5013321;28;20225;-76
2023/07/13 05:18:06;;;;;;;19.00;11.35;;;;;;;23.34;78.82;95481.13;5038528;28;20237;-76
2023/07/13 05:20:32;;;;;;;27.23;11.27;;;;;;;23.42;78.08;95482.50;5005354;28;20234;-76
2023/07/13 05:22:57;;;;;;;20.60;11.65;;;;;;;23.73;76.14;95481.47;5025240;28;20233;-75
2023/07/13 05:25:23;;;;;;;17.50;11.00;;;;;;;23.77;75.94;95473.69;5009168;28;20702;-76
2023/07/13 05:27:48;;;;;;;18.25;11.43;;;;;;;23.71;77.82;95472.09;5015340;28;20229;-75
2023/07/13 05:30:14;;;;;;;17.48;11.40;;;;;;;23.67;76.85;95481.72;5028779;28;20229;-75
2023/07/13 05:32:39;;;;;;;25.00;12.00;;;;;;;23.78;76.17;95476.09;5016507;28;20226;-76
2023/07/13 05:35:05;;;;;;;20.63;11.52;;;;;;;24.04;77.48;95479.56;5018259;28;20230;-76
2023/07/13 05:37:31;;;;;;;21.40;11.43;;;;;;;23.76;78.14;95482.78;5045934;28;20225;-75
2023/07/13 05:39:56;;;;;;;21.75;12.20;;;;;;;23.87;76.87;95485.19;5047355;28;20230;-75
2023/07/13 05:42:22;;;;;;;20.80;11.88;;;;;;;23.96;77.21;95483.56;5038060;28;20225;-76
2023/07/13 05:44:47;;;;;;;18.23;11.10;;;;;;;24.03;77.88;95489.44;5041489;28;20289;-76
2023/07/13 05:47:14;;;;;;;20.02;11.10;;;;;;;24.06;76.57;95488.94;5039983;28;20228;-76
2023/07/13 05:49:40;;;;;;;21.85;11.05;;;;;;;24.01;79.08;95480.09;5036281;28;20263;-77
2023/07/13 05:52:06;;;;;;;20.85;11.30;;;;;;;24.14;78.34;95494.81;5049807;28;20230;-76
2023/07/13 05:54:31;;;;;;;20.33;11.18;;;;;;;24.33;75.94;95487.84;5032347;28;20228;-76
2023/07/13 05:56:57;;;;;;;28.38;12.02;;;;;;;24.33;75.81;95485.97;5054647;28;20233;-76
2023/07/13 05:59:22;;;;;;;28.27;12.25;;;;;;;24.31;77.34;95479.28;5048105;28;20214;-75
2023/07/13 06:01:48;;;;;;;18.25;11.27;;;;;;;24.41;73.83;95471.22;5026655;28;20277;-76
2023/07/13 06:04:14;;;;;;;23.40;11.80;;;;;;;24.42;75.20;95468.28;5027876;28;20224;-77
2023/07/13 06:06:39;;;;;;;17.95;11.00;;;;;;;24.55;74.44;95466.91;5042278;28;20228;-76
2023/07/13 06:09:05;;;;;;;17.73;10.82;;;;;;;24.65;73.81;95473.00;5031784;28;20244;-77
2023/07/13 06:11:30;;;;;;;22.40;11.07;;;;;;;24.56;75.63;95476.50;5036075;28;20224;-77
2023/07/13 06:13:56;;;;;;;19.45;10.77;;;;;;;24.57;75.21;95476.25;5041015;28;20662;-77
2023/07/13 06:16:22;;;;;;;19.33;10.30;;;;;;;24.71;73.41;95482.63;5019173;28;20279;-76
2023/07/13 06:18:47;;;;;;;18.75;10.27;;;;;;;24.84;72.34;95486.59;5013681;28;20309;-76
2023/07/13 06:21:17;;;;;;;17.27;10.60;;;;;;;25.01;71.78;95483.56;5034263;28;20221;-76
2023/07/13 06:23:43;;;;;;;16.00;10.70;;;;;;;25.08;71.05;95481.41;5022533;28;20703;-76
2023/07/13 06:26:08;;;;;;;15.88;10.98;;;;;;;25.10;71.11;95487.31;5052651;28;20286;-76
2023/07/13 06:28:34;;;;;;;19.65;11.40;;;;;;;25.11;70.96;95478.97;5066876;28;20245;-76
2023/07/13 06:31:00;;;;;;;17.33;11.07;;;;;;;25.11;72.75;95484.34;5036151;28;20221;-76
2023/07/13 06:33:25;;;;;;;20.40;11.88;;;;;;;25.11;71.23;95476.31;5025747;28;20221;-75
2023/07/13 06:35:51;;;;;;;23.10;11.40;;;;;;;25.34;70.97;95478.28;5024587;28;20206;-76
2023/07/13 06:38:16;;;;;;;21.63;11.25;;;;;;;25.32;72.01;95485.81;5026444;28;20225;-76
2023/07/13 06:40:42;;;;;;;23.08;11.50;;;;;;;25.28;71.24;95481.28;5028840;28;20297;-75
2023/07/13 06:43:07;;;;;;;20.15;11.00;;;;;;;25.36;71.93;95473.44;5018246;28;20225;-76
2023/07/13 06:45:36;;;;;;;19.92;11.70;;;;;;;25.38;72.61;95482.03;5053622;28;20233;-78
2023/07/13 06:48:01;;;;;;;19.60;11.70;;;;;;;25.36;70.69;95476.13;5042107;28;20233;-76
2023/07/13 06:50:27;;;;;;;19.83;11.55;;;;;;;25.44;69.42;95474.78;5034575;28;20222;-76
2023/07/13 06:52:52;;;;;;;16.65;11.35;;;;;;;25.57;68.69;95462.63;5045157;28;20237;-75
2023/07/13 06:55:18;;;;;;;18.42;10.25;;;;;;;25.67;69.23;95470.59;5049950;28;20237;-76
2023/07/13 06:57:43;;;;;;;18.95;10.77;;;;;;;25.72;70.18;95473.25;5048124;28;20713;-76
2023/07/13 07:00:10;;;;;;;16.42;10.85;;;;;;;25.72;69.25;95473.25;5049410;28;20237;-75
2023/07/13 07:02:35;;;;;;;20.25;10.57;;;;;;;25.83;68.29;95480.13;5020138;28;20225;-75
2023/07/13 07:05:01;;;;;;;18.77;10.65;;;;;;;25.93;66.81;95480.84;5034977;28;20623;-76
2023/07/13 07:07:26;;;;;;;16.42;10.15;;;;;;;26.00;65.79;95477.84;5027024;28;20596;-75
2023/07/13 07:09:52;;;;;;;17.95;9.90;;;;;;;25.99;65.25;95474.34;5043723;28;20230;-75
2023/07/13 07:12:17;;;;;;;17.35;10.32;;;;;;;26.14;66.70;95483.34;5059354;28;20212;-77
2023/07/13 07:14:43;;;;;;;19.88;10.55;;;;;;;26.03;65.38;95478.06;5031872;28;20256;-76
2023/07/13 07:17:08;;;;;;;16.63;9.57;;;;;;;26.09;65.15;95473.44;5054832;28;21253;-75
2023/07/13 07:19:35;;;;;;;21.35;10.60;;;;;;;26.18;64.23;95469.09;5027388;28;20226;-77
2023/07/13 07:22:00;;;;;;;16.40;9.93;;;;;;;26.26;65.69;95478.41;5022332;28;20229;-75
2023/07/13 07:24:26;;;;;;;16.10;10.35;;;;;;;26.43;63.75;95471.53;5040057;28;20242;-75
2023/07/13 07:26:52;;;;;;;20.35;10.32;;;;;;;26.44;63.86;95470.44;5038492;28;20221;-75
2023/07/13 07:29:17;;;;;;;23.05;10.63;;;;;;;26.54;62.67;95474.88;5002543;28;20241;-76
2023/07/13 07:31:43;;;;;;;16.75;10.52;;;;;;;26.60;61.71;95474.56;5051556;28;20227;-75
2023/07/13 07:34:08;;;;;;;19.05;10.35;;;;;;;26.68;62.30;95467.72;5046643;28;20228;-75
2023/07/13 07:36:34;;;;;;;23.63;10.57;;;;;;;26.78;61.65;95464.16;5032935;28;20221;-75
2023/07/13 07:38:59;;;;;;;14.20;9.63;;;;;;;26.85;63.71;95457.34;5059287;28;20241;-75
2023/07/13 07:41:25;;;;;;;17.05;10.23;;;;;;;26.77;62.71;95463.38;5054958;28;20229;-75
2023/07/13 07:43:50;;;;;;;15.50;10.30;;;;;;;26.74;63.24;95453.97;5057397;28;20230;-75
2023/07/13 07:46:16;;;;;;;20.35;10.45;;;;;;;26.87;62.12;95460.53;5031944;28;20218;-75
2023/07/13 07:48:41;;;;;;;14.27;9.73;;;;;;;26.89;61.27;95453.00;5012026;28;20407;-75
2023/07/13 07:51:07;;;;;;;16.67;10.70;;;;;;;26.92;61.85;95454.28;5058247;28;20232;-75
2023/07/13 07:53:32;;;;;;;14.20;10.27;;;;;;;26.99;60.79;95452.84;5049745;28;20699;-75
2023/07/13 07:55:58;;;;;;;17.10;10.10;;;;;;;26.93;61.08;95442.47;5047581;28;20229;-76
2023/07/13 07:58:23;;;;;;;17.92;9.88;;;;;;;27.02;60.29;95446.09;5055983;28;20232;-76
2023/07/13 08:00:49;;;;;;;20.48;10.52;;;;;;;27.09;61.18;95447.34;5060900;28;20229;-74
2023/07/13 08:03:14;;;;;;;18.92;10.07;;;;;;;27.16;62.36;95438.91;5046286;28;20563;-77
2023/07/13 08:05:40;;;;;;;17.13;9.77;;;;;;;27.24;61.67;95430.22;5051568;28;20235;-75
2023/07/13 08:08:05;;;;;;;15.15;9.93;;;;;;;27.23;61.59;95432.09;5042511;28;20241;-75
2023/07/13 08:10:31;;;;;;;18.80;9.80;;;;;;;27.34;60.77;95432.75;5056368;28;20235;-76
2023/07/13 08:12:56;;;;;;;17.70;10.25;;;;;;;27.36;59.82;95419.81;5067213;28;20233;-76
2023/07/13 08:15:22;;;;;;;14.63;9.80;;;;;;;27.55;60.92;95425.19;5065337;28;20225;-76
2023/07/13 08:17:48;;;;;;;15.57;9.70;;;;;;;27.63;62.94;95421.84;5054796;28;20461;-76
2023/07/13 08:20:14;;;;;;;20.73;10.30;;;;;;;27.66;59.31;95426.63;5057628;28;20244;-76
2023/07/13 08:22:39;;;;;;;17.52;9.98;;;;;;;27.74;60.58;95417.88;5071455;28;20225;-76
2023/07/13 08:25:05;;;;;;;17.88;10.20;;;;;;;28.00;57.47;95419.88;5066123;28;20217;-77
2023/07/13 08:27:30;;;;;;;16.48;9.88;;;;;;;27.98;58.65;95405.88;5069250;28;20226;-76
2023/07/13 08:29:56;;;;;;;19.52;10.45;;;;;;;28.12;58.76;95415.91;5063144;28;20241;-76
2023/07/13 08:32:22;;;;;;;16.48;9.95;;;;;;;28.14;57.41;95416.38;5041419;28;20228;-76
2023/07/13 08:34:48;;;;;;;17.90;9.73;;;;;;;28.29;58.41;95408.84;5052256;28;20718;-76
2023/07/13 08:37:14;;;;;;;18.48;10.07;;;;;;;28.40;56.06;95404.84;5038568;28;20234;-76
2023/07/13 08:39:39;;;;;;;17.98;10.50;;;;;;;28.48;55.91;95397.97;5051388;28;20237;-76
2023/07/13 08:42:17;;;;;;;23.70;10.45;;;;;;;28.56;57.76;95402.66;5061497;28;20225;-76
2023/07/13 08:45:17;;;;;;;21.33;10.45;;;;;;;28.66;58.15;95402.47;5077261;28;20255;-76
2023/07/13 08:47:47;;;;;;;21.15;10.18;;;;;;;28.79;56.04;95403.53;5024836;28;20225;-77
2023/07/13 08:50:14;;;;;;;19.58;10.73;;;;;;;28.88;55.29;95404.41;5034776;28;20260;-75
2023/07/13 08:52:41;;;;;;;16.17;10.10;;;;;;;28.85;55.83;95405.06;5041350;28;20214;-75
2023/07/13 08:55:25;;;;;;;19.75;10.40;;;;;;;29.13;53.60;95403.88;5066732;28;20233;-75
2023/07/13 08:58:14;;;;;;;15.32;9.77;;;;;;;29.11;54.72;95414.94;5041232;28;20237;-75
2023/07/13 09:00:58;;;;;;;15.13;9.73;;;;;;;29.06;54.95;95417.78;5038505;28;20340;-75
2023/07/13 09:03:28;;;;;;;17.83;10.07;;;;;;;29.08;53.98;95420.97;5031948;28;20226;-75
2023/07/13 09:05:57;;;;;;;21.95;10.15;;;;;;;29.17;54.26;95432.63;5046372;28;20264;-75
2023/07/13 09:08:41;;;;;;;21.05;9.88;;;;;;;29.31;53.23;95430.72;5048676;28;20259;-76
2023/07/13 09:11:32;;;;;;;18.30;10.35;;;;;;;29.43;53.91;95434.75;5045775;28;20234;-74
2023/07/13 09:14:20;;;;;;;16.58;10.10;;;;;;;29.55;55.35;95441.22;5052015;28;20813;-75
2023/07/13 09:16:46;;;;;;;17.08;9.85;;;;;;;29.69;51.32;95431.16;5029224;28;20258;-75
2023/07/13 09:19:24;;;;;;;15.30;9.75;;;;;;;29.70;52.37;95430.06;5029605;28;20249;-75
2023/07/13 09:21:50;;;;;;;21.42;10.00;;;;;;;29.91;54.45;95435.78;5032492;28;20283;-76
2023/07/13 09:24:30;;;;;;;17.63;9.93;;;;;;;29.90;52.38;95431.50;5027570;28;20225;-76
2023/07/13 09:26:57;;;;;;;20.60;9.95;;;;;;;30.06;51.96;95434.59;5040137;28;20348;-77
2023/07/13 09:29:32;;;;;;;20.67;10.35;;;;;;;30.15;51.77;95441.66;5054914;28;20303;-76
2023/07/13 09:32:00;;;;;;;22.48;10.77;;;;;;;30.25;52.06;95427.88;5007203;28;20241;-76
2023/07/13 09:34:26;;;;;;;21.30;10.20;;;;;;;30.46;51.84;95420.84;5027897;28;20738;-76
2023/07/13 09:36:51;;;;;;;19.50;9.90;;;;;;;30.50;51.65;95426.41;5014227;28;20226;-76
2023/07/13 09:39:52;;;;;;;21.92;10.02;;;;;;;30.58;56.23;95428.34;5017374;28;20616;-76
2023/07/13 09:42:19;;;;;;;20.60;10.00;;;;;;;30.65;49.96;95426.00;5038496;28;20233;-76
2023/07/13 09:44:47;;;;;;;19.42;10.13;;;;;;;30.64;50.06;95419.78;5059678;28;20220;-77
2023/07/13 09:47:18;;;;;;;17.80;9.95;;;;;;;30.79;49.84;95423.97;5031881;28;20246;-75
2023/07/13 09:49:46;;;;;;;21.60;10.45;;;;;;;30.78;50.16;95418.88;5029033;28;20665;-75
2023/07/13 09:52:13;;;;;;;17.92;10.70;;;;;;;30.71;50.29;95405.03;5035853;28;20222;-75
2023/07/13 09:54:39;;;;;;;18.58;10.52;;;;;;;30.81;50.38;95396.63;5008128;28;20283;-75
2023/07/13 09:57:16;;;;;;;19.98;10.20;;;;;;;31.01;49.84;95396.03;5024532;28;20262;-74
2023/07/13 09:59:46;;;;;;;16.17;10.55;;;;;;;30.98;49.71;95396.66;5029481;28;20257;-76
2023/07/13 10:02:33;;;;;;;19.77;10.30;;;;;;;31.08;52.08;95390.94;5007409;28;20230;-75
2023/07/13 10:05:07;;;;;;;19.05;9.93;;;;;;;31.14;48.96;95395.09;5023019;28;20325;-76
2023/07/13 10:07:37;;;;;;;19.40;11.15;;;;;;;31.28;49.37;95393.84;5028494;28;20324;-75
2023/07/13 10:10:03;;;;;;;19.67;10.48;;;;;;;31.42;48.97;95379.34;5017068;28;20230;-76
2023/07/13 10:12:29;;;;;;;18.52;10.18;;;;;;;31.41;49.35;95375.06;5004555;28;20230;-74
2023/07/13 10:14:56;;;;;;;22.13;10.13;;;;;;;31.47;47.85;95371.88;5017588;28;20879;-75
2023/07/13 10:17:32;;;;;;;17.70;9.70;;;;;;;31.67;47.62;95373.16;5012629;28;20362;-74
2023/07/13 10:20:12;;;;;;;21.83;9.75;;;;;;;31.91;49.40;95378.78;5002751;28;20358;-75
2023/07/13 10:22:49;;;;;;;16.35;9.02;;;;;;;32.04;47.06;95380.56;5028735;28;20230;-74
2023/07/13 10:25:18;;;;;;;18.92;9.95;;;;;;;32.19;44.86;95376.53;5010210;28;20226;-78
2023/07/13 10:27:43;;;;;;;11.70;6.13;;;;;;;32.32;37.73;95364.66;5026613;28;20735;-76
2023/07/13 10:30:29;;;;;;;10.18;6.00;;;;;;;32.44;39.44;95372.91;5011989;28;20235;-74
2023/07/13 10:33:01;;;;;;;12.45;6.78;;;;;;;32.68;39.02;95366.91;5028636;28;21007;-75
2023/07/13 10:35:28;;;;;;;16.38;7.32;;;;;;;32.55;39.52;95368.75;5016337;28;20711;-75
2023/07/13 10:38:09;;;;;;;11.65;6.78;;;;;;;32.60;39.41;95366.63;5014153;28;20218;-75
2023/07/13 10:40:39;;;;;;;14.45;7.07;;;;;;;32.65;37.56;95362.91;5034130;28;20469;-75
2023/07/13 10:43:09;;;;;;;11.25;7.30;;;;;;;32.70;38.14;95357.31;5000704;28;20244;-75
2023/07/13 10:45:35;;;;;;;13.27;6.90;;;;;;;32.65;37.14;95357.50;5032184;28;20718;-75
2023/07/13 10:48:00;;;;;;;14.93;6.55;;;;;;;32.80;37.27;95361.56;5011585;28;20225;-75
2023/07/13 10:50:27;;;;;;;13.68;6.03;;;;;;;32.88;36.05;95355.28;5020773;28;20219;-74
2023/07/13 10:52:54;;;;;;;10.43;5.82;;;;;;;32.86;36.71;95344.78;5012845;28;20236;-76
2023/07/13 10:55:48;;;;;;;12.57;5.85;;;;;;;33.25;32.92;95346.25;4997086;28;20222;-75
2023/07/13 10:58:28;;;;;;;8.75;5.50;;;;;;;33.31;33.63;95344.94;5045406;28;20281;-76
2023/07/13 11:01:05;;;;;;;13.15;5.85;;;;;;;33.37;32.27;95338.16;5025835;28;20651;-76
2023/07/13 11:03:32;;;;;;;11.98;5.32;;;;;;;33.28;33.42;95323.88;5029562;28;20287;-75
2023/07/13 11:06:41;;;;;;;12.48;5.45;;;;;;;33.20;34.59;95325.53;5033267;28;20253;-76
2023/07/13 11:09:33;;;;;;;10.05;5.68;;;;;;;33.44;33.26;95321.34;5031094;28;20236;-76
2023/07/13 11:12:03;;;;;;;12.52;5.88;;;;;;;33.52;33.15;95323.16;5000721;28;20230;-75
2023/07/13 11:14:58;;;;;;;11.10;5.50;;;;;;;33.62;32.65;95315.44;5019631;28;20310;-74
2023/07/13 11:17:30;;;;;;;10.05;5.85;;;;;;;33.69;33.75;95312.97;5021997;28;20293;-75
2023/07/13 11:20:11;;;;;;;12.18;5.63;;;;;;;33.54;34.17;95308.16;5015878;28;20230;-76
2023/07/13 11:22:47;;;;;;;11.48;5.43;;;;;;;33.48;34.33;95320.34;5039008;28;20278;-74
2023/07/13 11:25:28;;;;;;;13.20;5.80;;;;;;;33.63;33.82;95306.16;5039114;28;20230;-75